Time;durP1;ratioP1;P1;durP2;ratioP2;P2;SDS_P1;SDS_P2;PMS_P1;PMS_P2;Temp;Humidity;BMP_temperature;BMP_pressure;BME280_temperature;BME280_humidity;BME280_pressure;Samples;Min_cycle;Max_cycle;Signal;HPM_P1;HPM_P2
2021/07/16 00:01:00;;;;;;;;;8.33;7.00;;;;;19.94;54.21;101855.94;5032788;28;44810;-93
2021/07/16 00:03:26;;;;;;;;;10.00;6.67;;;;;19.97;54.65;101854.94;5016496;28;45616;-91
2021/07/16 00:05:51;;;;;;;;;8.50;8.50;;;;;19.96;54.79;101847.94;5016038;28;47050;-92
2021/07/16 00:08:17;;;;;;;;;8.33;8.00;;;;;19.96;55.11;101862.03;5032715;28;45349;-92
2021/07/16 00:10:43;;;;;;;;;6.50;6.50;;;;;19.95;54.54;101852.34;5013130;28;45406;-93
2021/07/16 00:13:09;;;;;;;;;9.33;8.00;;;;;19.87;54.19;101841.41;5008224;28;45513;-92
2021/07/16 00:15:35;;;;;;;;;9.00;9.00;;;;;19.83;54.63;101850.44;5032624;28;47385;-94
2021/07/16 00:18:01;;;;;;;;;7.50;7.50;;;;;19.81;54.75;101845.25;5016108;28;45620;-92
2021/07/16 00:20:26;;;;;;;;;11.33;11.00;;;;;19.79;55.09;101840.97;5032878;28;45375;-93
2021/07/16 00:22:52;;;;;;;;;7.33;6.00;;;;;19.79;55.20;101852.41;5026960;28;45369;-92
2021/07/16 00:25:17;;;;;;;;;10.00;8.33;;;;;19.71;55.20;101847.56;5012852;28;48423;-92
2021/07/16 00:27:42;;;;;;;;;9.00;9.00;;;;;19.71;55.25;101842.28;5021975;28;45537;-91
2021/07/16 00:30:10;;;;;;;;;9.00;9.00;;;;;19.73;55.07;101853.59;5017170;28;45226;-92
2021/07/16 00:32:36;;;;;;;;;9.33;9.00;;;;;19.73;55.32;101853.59;5031539;28;45314;-93
2021/07/16 00:35:02;;;;;;;;;11.67;10.00;;;;;19.70;55.17;101848.50;5018782;28;48461;-92
2021/07/16 00:37:28;;;;;;;;;9.00;9.00;;;;;19.68;55.35;101833.69;5031148;28;45428;-93
2021/07/16 00:39:53;;;;;;;;;11.33;9.00;;;;;19.71;55.72;101836.13;4999855;28;45595;-92
2021/07/16 00:42:19;;;;;;;;;11.00;9.00;;;;;19.72;55.58;101846.63;5017312;28;45367;-92
2021/07/16 00:44:44;;;;;;;;;11.25;9.00;;;;;19.72;55.81;101843.16;5029842;28;47185;-92
2021/07/16 00:47:10;;;;;;;;;9.00;8.00;;;;;19.73;55.70;101847.47;5035709;28;45548;-91
2021/07/16 00:49:36;;;;;;;;;10.67;9.00;;;;;19.72;55.72;101851.06;5036022;28;45318;-91
2021/07/16 00:52:02;;;;;;;;;12.67;9.00;;;;;19.72;55.73;101849.25;5029826;28;45520;-93
2021/07/16 00:54:28;;;;;;;;;10.00;9.67;;;;;19.70;55.60;101855.56;5018957;28;46742;-92
2021/07/16 00:56:54;;;;;;;;;9.33;9.33;;;;;19.67;55.62;101848.66;5018887;28;45439;-90
2021/07/16 00:59:20;;;;;;;;;8.00;7.33;;;;;19.67;55.74;101851.31;5036007;28;45284;-92
2021/07/16 01:01:47;;;;;;;;;11.67;7.00;;;;;19.63;55.61;101849.81;5035729;28;45303;-92
2021/07/16 01:04:13;;;;;;;;;11.67;8.00;;;;;19.61;55.63;101847.25;5035590;28;48416;-92
2021/07/16 01:06:39;;;;;;;;;11.67;10.67;;;;;19.60;55.84;101852.59;5013188;28;45428;-92
2021/07/16 01:09:05;;;;;;;;;10.67;10.00;;;;;19.61;55.81;101857.81;5019199;28;45506;-92
2021/07/16 01:11:32;;;;;;;;;8.00;7.33;;;;;19.59;55.86;101853.56;5019154;28;45448;-92
2021/07/16 01:13:57;;;;;;;;;10.25;10.25;;;;;19.61;56.01;101865.72;5007345;28;47136;-93
2021/07/16 01:16:23;;;;;;;;;10.75;8.25;;;;;19.59;55.93;101853.56;5002306;28;45978;-93
2021/07/16 01:18:48;;;;;;;;;8.00;8.00;;;;;19.59;56.33;101861.47;5018745;28;45463;-92
2021/07/16 01:21:14;;;;;;;;;8.25;8.25;;;;;19.61;55.98;101862.22;5019374;28;45412;-91
2021/07/16 01:23:41;;;;;;;;;9.75;9.25;;;;;19.55;56.42;101858.16;5035409;28;47341;-93
2021/07/16 01:26:07;;;;;;;;;9.00;9.00;;;;;19.55;56.51;101873.13;5034908;28;45270;-92
2021/07/16 01:28:37;;;;;;;;;10.67;7.33;;;;;19.49;56.74;101863.78;5016565;28;45493;-92
2021/07/16 01:31:05;;;;;;;;;9.00;7.67;;;;;19.50;56.56;101871.59;5018993;28;45621;-92
2021/07/16 01:33:31;;;;;;;;;10.00;8.33;;;;;19.47;56.50;101857.72;5018684;28;48482;-92
2021/07/16 01:35:58;;;;;;;;;9.00;8.00;;;;;19.48;56.52;101864.69;5020119;28;44956;-93
2021/07/16 01:38:24;;;;;;;;;8.75;8.75;;;;;19.45;56.83;101855.16;4999464;28;45314;-93
2021/07/16 01:40:49;;;;;;;;;7.25;6.25;;;;;19.44;56.61;101863.19;5015622;28;45355;-93
2021/07/16 01:43:15;;;;;;;;;9.00;7.00;;;;;19.42;56.76;101865.03;5014934;28;47049;-93
2021/07/16 01:45:42;;;;;;;;;8.00;7.50;;;;;19.39;56.81;101859.97;5025481;28;45416;-92
2021/07/16 01:48:14;;;;;;;;;8.00;7.75;;;;;19.39;56.77;101859.97;5003127;28;45328;-92
2021/07/16 01:50:42;;;;;;;;;8.25;8.25;;;;;19.38;57.52;101861.72;4998717;28;45427;-93
2021/07/16 01:53:09;;;;;;;;;12.25;8.00;;;;;19.39;56.77;101867.88;4999245;28;45811;-92
2021/07/16 01:55:36;;;;;;;;;10.25;8.00;;;;;19.36;56.97;101858.34;5015000;28;45244;-92
2021/07/16 01:58:05;;;;;;;;;8.25;6.50;;;;;19.35;56.86;101859.28;5014783;28;45309;-92
2021/07/16 02:00:39;;;;;;;;;10.00;8.33;;;;;19.36;57.23;101858.34;4999447;28;45506;-92
2021/07/16 02:03:08;;;;;;;;;10.00;8.00;;;;;19.35;57.42;101854.84;5014783;28;46944;-92
2021/07/16 02:05:34;;;;;;;;;9.33;8.00;;;;;19.35;57.02;101849.56;5018031;28;45443;-92
2021/07/16 02:08:05;;;;;;;;;12.00;9.00;;;;;19.35;57.52;101852.19;5018408;28;45323;-93
2021/07/16 02:10:31;;;;;;;;;9.00;8.67;;;;;19.40;57.12;101859.00;5007079;28;45448;-93
2021/07/16 02:12:59;;;;;;;;;8.33;7.33;;;;;19.38;57.66;101859.09;5032802;28;47747;-93
2021/07/16 02:15:31;;;;;;;;;8.33;6.00;;;;;19.39;57.30;101865.22;5018094;28;45280;-93
2021/07/16 02:17:58;;;;;;;;;8.25;7.50;;;;;19.36;57.59;101853.06;5019419;28;45394;-93
2021/07/16 02:20:35;;;;;;;;;8.25;7.75;;;;;19.42;57.93;101867.69;5013817;28;45253;-93
2021/07/16 02:23:07;;;;;;;;;10.25;7.50;;;;;19.43;58.41;101862.31;4997902;28;47270;-93
2021/07/16 02:25:33;;;;;;;;;10.75;7.50;;;;;19.47;59.02;101866.50;4998277;28;45401;-94
2021/07/16 02:28:03;;;;;;;;;7.00;7.00;;;;;19.43;58.72;101857.03;5014871;28;45388;-92
2021/07/16 02:30:29;;;;;;;;;7.33;5.67;;;;;19.42;58.67;101851.84;4998483;28;45515;-92
2021/07/16 02:32:56;;;;;;;;;9.00;7.67;;;;;19.39;59.27;101852.03;5010515;28;46940;-92
2021/07/16 02:35:23;;;;;;;;;7.67;7.67;;;;;19.36;59.14;101853.06;5017731;28;45308;-92
2021/07/16 02:37:48;;;;;;;;;7.67;7.33;;;;;19.33;59.38;101853.22;5034856;28;45236;-92
2021/07/16 02:40:15;;;;;;;;;9.67;8.33;;;;;19.27;59.09;101856.19;5017756;28;45263;-92
2021/07/16 02:42:42;;;;;;;;;7.33;7.33;;;;;19.22;59.12;101852.00;5030913;28;47230;-93
2021/07/16 02:45:11;;;;;;;;;8.00;6.33;;;;;19.25;59.06;101860.72;5038458;28;45465;-92
2021/07/16 02:47:37;;;;;;;;;7.33;7.00;;;;;19.22;59.39;101861.75;5017688;28;45780;-93
2021/07/16 02:50:11;;;;;;;;;9.33;8.33;;;;;19.23;59.48;101856.38;5014120;28;45430;-93
2021/07/16 02:52:37;;;;;;;;;6.67;6.67;;;;;19.23;59.32;101866.06;5001652;28;48459;-92
2021/07/16 02:55:04;;;;;;;;;10.00;7.67;;;;;19.25;59.25;101864.19;5013622;28;45632;-93
2021/07/16 02:57:30;;;;;;;;;8.00;8.00;;;;;19.21;59.20;101845.03;5013678;28;45455;-92
2021/07/16 02:59:55;;;;;;;;;8.33;7.00;;;;;19.22;59.29;101862.56;4997852;28;45565;-92
2021/07/16 03:02:21;;;;;;;;;8.67;6.00;;;;;19.25;59.43;101866.00;5011622;28;47096;-92
2021/07/16 03:04:49;;;;;;;;;8.67;6.33;;;;;19.22;59.63;101861.75;4998227;28;46005;-92
2021/07/16 03:07:14;;;;;;;;;6.67;6.67;;;;;19.21;59.64;101854.75;5014155;28;45359;-93
2021/07/16 03:09:40;;;;;;;;;9.25;7.75;;;;;19.20;59.44;101859.19;5014252;28;45318;-93
2021/07/16 03:12:06;;;;;;;;;7.00;6.67;;;;;19.19;60.45;101854.84;5015220;28;47250;-93
2021/07/16 03:14:31;;;;;;;;;6.00;6.00;;;;;19.19;59.98;101857.47;5014817;28;45734;-92
2021/07/16 03:16:57;;;;;;;;;7.00;7.00;;;;;19.19;59.68;101860.13;5034019;28;45538;-92
2021/07/16 03:19:22;;;;;;;;;8.00;6.67;;;;;19.18;59.64;101855.78;5017644;28;45398;-93
2021/07/16 03:21:48;;;;;;;;;6.33;6.33;;;;;19.21;59.80;101858.25;5033512;28;48317;-92
2021/07/16 03:24:14;;;;;;;;;8.00;7.00;;;;;19.22;59.97;101864.38;5015757;28;45380;-92
2021/07/16 03:26:40;;;;;;;;;9.67;8.67;;;;;19.18;59.67;101857.56;5033536;28;45474;-92
2021/07/16 03:29:05;;;;;;;;;6.00;6.00;;;;;19.19;60.11;101856.63;5033799;28;45252;-92
2021/07/16 03:31:31;;;;;;;;;6.00;6.00;;;;;19.19;60.01;101852.22;5033127;28;47574;-93
2021/07/16 03:33:56;;;;;;;;;9.00;6.33;;;;;19.19;59.91;101853.97;5033494;28;45229;-92
2021/07/16 03:36:22;;;;;;;;;5.00;5.00;;;;;19.18;59.75;101853.16;5026395;28;45229;-92
2021/07/16 03:38:48;;;;;;;;;8.00;6.00;;;;;19.16;59.71;101857.63;4997352;28;45287;-90
2021/07/16 03:41:14;;;;;;;;;8.33;6.00;;;;;19.15;59.76;101858.56;5016673;28;47329;-93
2021/07/16 03:43:40;;;;;;;;;5.67;5.67;;;;;19.13;59.91;101855.19;5013487;28;45444;-92
2021/07/16 03:46:05;;;;;;;;;8.67;8.00;;;;;19.09;59.50;101856.28;4998002;28;45386;-91
2021/07/16 03:48:32;;;;;;;;;9.00;9.00;;;;;19.06;59.91;101852.03;5004775;28;45530;-92
2021/07/16 03:50:58;;;;;;;;;10.00;9.00;;;;;19.08;60.32;101858.06;4996601;28;47292;-93
2021/07/16 03:53:23;;;;;;;;;7.67;5.67;;;;;19.04;60.47;101850.41;4996433;28;45331;-93
2021/07/16 03:55:48;;;;;;;;;7.00;7.00;;;;;19.05;60.16;101849.47;4996767;28;45395;-92
2021/07/16 03:58:14;;;;;;;;;6.33;6.33;;;;;19.01;60.30;101851.38;5015304;28;45362;-92
2021/07/16 04:00:39;;;;;;;;;7.67;5.33;;;;;19.02;60.73;101857.53;5032833;28;47108;-93
2021/07/16 04:03:05;;;;;;;;;7.67;6.33;;;;;19.00;60.38;101852.31;5033052;28;45284;-92
2021/07/16 04:05:32;;;;;;;;;8.67;7.67;;;;;18.98;60.69;101846.25;5013067;28;45326;-93
2021/07/16 04:08:03;;;;;;;;;8.00;8.00;;;;;19.02;60.20;101846.97;5006393;28;45638;-92
2021/07/16 04:10:30;;;;;;;;;7.33;7.00;;;;;18.97;60.59;101839.28;5016551;28;48549;-92
2021/07/16 04:13:01;;;;;;;;;10.50;9.00;;;;;18.98;60.56;101848.06;5016608;28;45999;-91
2021/07/16 04:15:27;;;;;;;;;7.67;7.67;;;;;18.94;60.56;101848.22;5005867;28;45455;-92
2021/07/16 04:17:54;;;;;;;;;6.00;4.00;;;;;18.96;60.29;101862.19;5016782;28;45494;-92
2021/07/16 04:20:19;;;;;;;;;10.00;6.33;;;;;19.00;60.59;101857.59;5016512;28;47493;-91
2021/07/16 04:22:45;;;;;;;;;6.00;6.00;;;;;18.96;60.46;101858.69;5016558;28;45926;-92
2021/07/16 04:25:19;;;;;;;;;6.67;6.67;;;;;18.95;61.10;101867.53;5026839;28;44608;-92
2021/07/16 04:27:49;;;;;;;;;7.00;7.00;;;;;18.91;60.69;101866.84;5011227;28;45742;-92
2021/07/16 04:30:16;;;;;;;;;7.00;6.00;;;;;18.90;60.84;101870.44;5017523;28;46960;-93
2021/07/16 04:32:42;;;;;;;;;8.33;6.67;;;;;18.91;61.14;101868.63;5019375;28;45389;-92
2021/07/16 04:35:09;;;;;;;;;7.00;5.67;;;;;18.88;60.94;101868.81;5019836;28;45415;-92
2021/07/16 04:37:35;;;;;;;;;10.00;8.00;;;;;18.87;61.03;101872.34;5020096;28;45531;-92
2021/07/16 04:40:05;;;;;;;;;4.33;4.33;;;;;18.88;60.92;101872.28;5004538;28;47068;-93
2021/07/16 04:42:31;;;;;;;;;6.67;5.67;;;;;18.87;61.03;101873.22;5016198;28;45351;-92
2021/07/16 04:44:57;;;;;;;;;6.00;6.00;;;;;18.88;60.95;101872.28;5015877;28;45438;-92
2021/07/16 04:47:22;;;;;;;;;7.00;6.00;;;;;18.89;61.09;101873.97;5016326;28;44861;-93
2021/07/16 04:49:47;;;;;;;;;8.00;6.33;;;;;18.88;61.27;101876.72;5017697;28;46907;-92
2021/07/16 04:52:13;;;;;;;;;6.67;5.67;;;;;18.90;60.95;101881.00;5035264;28;45329;-92
2021/07/16 04:54:39;;;;;;;;;5.67;5.00;;;;;18.90;61.00;101877.47;5019714;28;45265;-92
2021/07/16 04:57:08;;;;;;;;;6.00;6.00;;;;;18.86;61.15;101882.06;5020505;28;45276;-91
2021/07/16 04:59:34;;;;;;;;;5.00;5.00;;;;;18.85;61.08;101879.50;5035634;28;47654;-92
2021/07/16 05:01:59;;;;;;;;;7.00;6.25;;;;;18.85;61.77;101880.38;5008745;28;44865;-92
2021/07/16 05:04:24;;;;;;;;;5.25;5.00;;;;;18.86;61.40;101873.31;5017664;28;45293;-91
2021/07/16 05:06:50;;;;;;;;;6.75;5.75;;;;;18.84;61.70;101876.00;5000369;28;45551;-91
2021/07/16 05:09:16;;;;;;;;;5.00;5.00;;;;;18.85;61.28;101880.38;5016013;28;47197;-92
2021/07/16 05:11:42;;;;;;;;;7.25;5.00;;;;;18.85;61.40;101882.16;4999259;28;45875;-92
2021/07/16 05:14:07;;;;;;;;;5.25;5.25;;;;;18.82;61.00;101877.88;5014080;28;45630;-93
2021/07/16 05:16:33;;;;;;;;;4.50;4.50;;;;;18.85;61.45;101879.50;4999925;28;45436;-91
2021/07/16 05:18:58;;;;;;;;;9.00;5.00;;;;;18.85;61.29;101884.78;5015253;28;47560;-93
2021/07/16 05:21:24;;;;;;;;;7.25;6.00;;;;;18.84;61.48;101881.28;5015299;28;45300;-92
2021/07/16 05:23:49;;;;;;;;;4.50;4.50;;;;;18.87;61.71;101883.78;5018581;28;45304;-92
2021/07/16 05:26:15;;;;;;;;;7.25;7.25;;;;;18.85;61.18;101888.28;5035955;28;45345;-92
2021/07/16 05:28:41;;;;;;;;;8.00;5.75;;;;;18.84;61.31;101889.19;5035295;28;47147;-92
2021/07/16 05:31:08;;;;;;;;;6.00;6.00;;;;;18.89;61.85;101902.16;5035148;28;45384;-92
2021/07/16 05:33:34;;;;;;;;;7.75;5.50;;;;;18.88;61.18;101896.03;5015692;28;45446;-92
2021/07/16 05:35:59;;;;;;;;;4.25;4.25;;;;;18.90;61.09;101906.50;4998843;28;45293;-92
2021/07/16 05:38:25;;;;;;;;;7.75;6.00;;;;;18.84;61.25;101891.84;5018291;28;48086;-92
2021/07/16 05:40:51;;;;;;;;;7.00;5.00;;;;;18.89;61.40;101894.25;4998795;28;45803;-92
2021/07/16 05:43:17;;;;;;;;;8.25;8.25;;;;;18.89;61.18;101896.88;5018744;28;45347;-92
2021/07/16 05:45:43;;;;;;;;;6.25;6.25;;;;;18.86;61.61;101891.75;5020748;28;45409;-92
2021/07/16 05:48:10;;;;;;;;;10.50;5.25;;;;;18.87;61.39;101904.88;5018068;28;47225;-92
2021/07/16 05:50:40;;;;;;;;;8.00;5.00;;;;;18.89;61.44;101905.63;5018411;28;45296;-92
2021/07/16 05:53:06;;;;;;;;;6.00;5.67;;;;;18.95;61.69;101907.09;5023053;28;45434;-93
2021/07/16 05:55:32;;;;;;;;;7.00;6.50;;;;;18.94;61.46;101908.03;5018040;28;45502;-93
2021/07/16 05:57:58;;;;;;;;;6.33;5.00;;;;;19.00;61.36;101917.41;4998310;28;47028;-92
2021/07/16 06:00:24;;;;;;;;;5.00;4.00;;;;;19.00;61.33;101920.91;4999545;28;45209;-92
2021/07/16 06:02:49;;;;;;;;;5.67;5.00;;;;;19.01;61.07;101922.59;5017459;28;45348;-92
2021/07/16 06:05:14;;;;;;;;;7.00;5.67;;;;;19.05;61.24;101918.03;5024170;28;45293;-91
2021/07/16 06:07:40;;;;;;;;;8.00;6.67;;;;;19.07;61.39;101922.31;5034827;28;47609;-92
2021/07/16 06:10:07;;;;;;;;;4.67;4.67;;;;;19.07;61.60;101918.84;5035058;28;45308;-92
2021/07/16 06:12:32;;;;;;;;;7.00;6.33;;;;;19.14;61.10;101928.13;5018377;28;45467;-93
2021/07/16 06:14:58;;;;;;;;;5.33;3.67;;;;;19.12;60.86;101926.50;5005044;28;45396;-92
2021/07/16 06:17:25;;;;;;;;;5.50;5.50;;;;;19.08;61.18;101931.09;5013969;28;46607;-92
2021/07/16 06:19:51;;;;;;;;;5.00;4.50;;;;;19.09;61.18;101933.66;4997961;28;45626;-92
2021/07/16 06:22:16;;;;;;;;;3.33;3.33;;;;;19.11;61.04;101936.19;4999827;28;45482;-91
2021/07/16 06:24:42;;;;;;;;;5.00;5.00;;;;;19.11;61.39;101936.19;5005773;28;45573;-92
2021/07/16 06:27:07;;;;;;;;;4.33;4.33;;;;;19.10;60.95;101934.47;5017649;28;47331;-91
2021/07/16 06:29:33;;;;;;;;;5.33;4.00;;;;;19.13;60.79;101942.25;5017478;28;45329;-91
2021/07/16 06:31:59;;;;;;;;;3.00;3.00;;;;;19.13;61.02;101944.88;5025640;28;45326;-91
2021/07/16 06:34:24;;;;;;;;;4.33;4.00;;;;;19.14;61.06;101948.34;5008402;28;45391;-92
2021/07/16 06:36:50;;;;;;;;;6.33;5.33;;;;;19.13;60.99;101949.28;5008638;28;45153;-93
2021/07/16 06:39:15;;;;;;;;;6.00;5.00;;;;;19.12;61.08;101947.59;5024900;28;45357;-92
2021/07/16 06:41:40;;;;;;;;;6.33;5.00;;;;;19.14;61.17;101948.34;4997957;28;45253;-92
2021/07/16 06:44:08;;;;;;;;;5.67;5.00;;;;;19.13;60.95;101944.03;5014845;28;45601;-92
2021/07/16 06:46:33;;;;;;;;;5.00;3.00;;;;;19.12;60.87;101947.59;5014764;28;47115;-92
2021/07/16 06:48:58;;;;;;;;;7.00;5.67;;;;;19.17;60.84;101956.13;5000434;28;45597;-92
2021/07/16 06:51:24;;;;;;;;;5.67;4.00;;;;;19.17;60.65;101949.03;5033422;28;45523;-94
2021/07/16 06:53:49;;;;;;;;;3.00;3.00;;;;;19.21;60.80;101947.94;5017223;28;45536;-92
2021/07/16 06:56:15;;;;;;;;;4.00;3.00;;;;;19.22;60.68;101946.19;4999400;28;46990;-91
2021/07/16 06:58:40;;;;;;;;;6.00;4.67;;;;;19.28;60.96;101958.16;5034121;28;45401;-92
2021/07/16 07:01:07;;;;;;;;;4.33;4.33;;;;;19.26;60.80;101955.63;5030104;28;45397;-93
2021/07/16 07:03:32;;;;;;;;;4.33;3.00;;;;;19.20;60.77;101954.16;4998065;28;45352;-91
2021/07/16 07:05:58;;;;;;;;;5.00;4.00;;;;;19.23;60.79;101958.44;5005429;28;47397;-91
2021/07/16 07:08:24;;;;;;;;;4.67;4.00;;;;;19.26;60.91;101968.84;5013808;28;45255;-92
2021/07/16 07:10:49;;;;;;;;;2.67;2.67;;;;;19.25;60.84;101961.81;5026314;28;45362;-91
2021/07/16 07:13:15;;;;;;;;;3.00;3.00;;;;;19.26;60.50;101965.31;5014178;28;45323;-92
2021/07/16 07:15:41;;;;;;;;;3.33;3.33;;;;;19.26;60.77;101971.47;4997192;28;47290;-92
2021/07/16 07:18:09;;;;;;;;;3.33;3.00;;;;;19.28;60.55;101971.38;4997193;28;45292;-92
2021/07/16 07:20:36;;;;;;;;;4.00;2.00;;;;;19.29;60.68;101971.28;5007405;28;46916;-92
2021/07/16 07:23:04;;;;;;;;;2.67;2.33;;;;;19.30;60.68;101975.63;5017180;28;45499;-92
2021/07/16 07:25:30;;;;;;;;;3.00;3.00;;;;;19.30;60.67;101978.25;5016582;28;47084;-92
2021/07/16 07:27:55;;;;;;;;;3.00;2.00;;;;;19.28;60.75;101969.59;5016843;28;45494;-92
2021/07/16 07:30:21;;;;;;;;;3.33;2.67;;;;;19.33;60.54;101971.97;5014402;28;45313;-91
2021/07/16 07:32:46;;;;;;;;;3.00;3.00;;;;;19.30;60.48;101978.25;5012583;28;45233;-92
2021/07/16 07:35:13;;;;;;;;;3.67;3.00;;;;;19.29;60.56;101978.34;5013425;28;47964;-92
2021/07/16 07:37:39;;;;;;;;;3.33;3.33;;;;;19.30;60.93;101980.06;5013790;28;45487;-93
2021/07/16 07:40:07;;;;;;;;;3.00;3.00;;;;;19.33;60.82;101980.75;5017011;28;45213;-93
2021/07/16 07:42:33;;;;;;;;;4.00;4.00;;;;;19.31;60.71;101984.41;5013420;28;45273;-92
2021/07/16 07:44:58;;;;;;;;;3.00;1.00;;;;;19.30;60.41;101986.19;5012764;28;47430;-92
2021/07/16 07:47:24;;;;;;;;;2.00;2.00;;;;;19.26;60.34;101976.75;5033360;28;45342;-93
2021/07/16 07:49:50;;;;;;;;;4.33;2.33;;;;;19.30;60.41;101988.00;5033440;28;45418;-93
2021/07/16 07:52:16;;;;;;;;;4.67;3.00;;;;;19.32;60.02;101988.75;5011950;28;45697;-93
2021/07/16 07:54:42;;;;;;;;;2.67;2.67;;;;;19.30;60.65;101988.00;5016340;28;47685;-94
2021/07/16 07:57:07;;;;;;;;;2.00;2.00;;;;;19.27;60.62;101983.72;5015416;28;44937;-93
2021/07/16 07:59:33;;;;;;;;;2.00;2.00;;;;;19.28;60.30;101990.69;5010818;28;45521;-93
2021/07/16 08:01:59;;;;;;;;;3.00;1.33;;;;;19.31;60.74;101995.81;4997141;28;45403;-93
2021/07/16 08:04:26;;;;;;;;;2.00;2.00;;;;;19.38;60.10;102004.25;4996995;28;46245;-92
2021/07/16 08:06:51;;;;;;;;;5.33;2.67;;;;;19.38;60.08;102000.78;5012694;28;44764;-93
2021/07/16 08:09:17;;;;;;;;;2.00;2.00;;;;;19.42;60.38;102000.53;5022368;28;45280;-92
2021/07/16 08:11:42;;;;;;;;;1.33;1.00;;;;;19.50;60.30;102008.88;5013747;28;45308;-92
2021/07/16 08:14:08;;;;;;;;;4.00;2.33;;;;;19.58;60.34;102013.72;5017802;28;47777;-91
2021/07/16 08:16:33;;;;;;;;;1.67;1.67;;;;;19.59;60.26;102012.78;5027508;28;45268;-93
2021/07/16 08:18:59;;;;;;;;;4.00;3.00;;;;;19.63;60.04;102008.22;5033126;28;45244;-93
2021/07/16 08:21:25;;;;;;;;;4.00;3.00;;;;;19.66;59.90;102012.50;5027148;28;45442;-94
2021/07/16 08:23:53;;;;;;;;;1.00;1.00;;;;;19.60;59.59;102013.66;5012920;28;47268;-93
2021/07/16 08:26:19;;;;;;;;;2.00;1.67;;;;;19.55;59.97;102011.28;5032985;28;45438;-92
2021/07/16 08:28:45;;;;;;;;;2.00;2.00;;;;;19.54;59.67;102017.50;5030580;28;45561;-93
2021/07/16 08:31:11;;;;;;;;;3.00;2.00;;;;;19.53;59.46;102022.84;5013341;28;45415;-93
2021/07/16 08:33:37;;;;;;;;;1.00;1.00;;;;;19.45;59.56;102018.81;5008826;28;45276;-93
2021/07/16 08:36:03;;;;;;;;;2.00;2.00;;;;;19.48;59.78;102018.66;5021146;28;45693;-94
2021/07/16 08:38:28;;;;;;;;;1.33;1.33;;;;;19.51;60.13;102025.56;5013507;28;45283;-93
2021/07/16 08:40:54;;;;;;;;;1.67;1.67;;;;;19.56;60.17;102031.47;5013498;28;45605;-93
2021/07/16 08:43:22;;;;;;;;;2.00;1.00;;;;;19.57;59.78;102030.53;5001378;28;46512;-93
2021/07/16 08:45:47;;;;;;;;;1.33;1.33;;;;;19.62;59.94;102028.47;5014467;28;44807;-93
2021/07/16 08:48:13;;;;;;;;;2.67;2.00;;;;;19.65;59.67;102027.47;5022709;28;45395;-92
2021/07/16 08:50:40;;;;;;;;;3.00;1.67;;;;;19.70;59.73;102027.22;5013038;28;45439;-93
2021/07/16 08:53:06;;;;;;;;;3.00;2.00;;;;;19.68;59.69;102021.16;5012491;28;48124;-94
2021/07/16 08:55:36;;;;;;;;;0.00;0.00;;;;;19.72;59.58;102033.28;5015806;28;45433;-93
2021/07/16 08:58:06;;;;;;;;;1.00;1.00;;;;;19.77;59.94;102037.34;5009573;28;45189;-93
2021/07/16 09:00:39;;;;;;;;;1.00;1.00;;;;;19.79;59.75;102032.00;5011326;28;45405;-93
2021/07/16 09:03:05;;;;;;;;;1.00;1.00;;;;;19.86;59.48;102043.91;4999265;28;48453;-93
2021/07/16 09:05:40;;;;;;;;;0.33;0.33;;;;;19.94;59.93;102034.75;5010241;28;45829;-90
2021/07/16 09:08:14;;;;;;;;;2.00;1.67;;;;;19.99;59.47;102040.63;5016593;28;45311;-91
2021/07/16 09:10:44;;;;;;;;;3.00;1.00;;;;;20.09;59.66;102039.19;5009158;28;45610;-92
2021/07/16 09:13:10;;;;;;;;;1.00;1.00;;;;;20.18;59.01;102039.63;4999307;28;50153;-92
2021/07/16 09:15:36;;;;;;;;;2.00;2.00;;;;;20.25;59.17;102046.25;4991069;28;45478;-90
2021/07/16 09:18:21;;;;;;;;;3.00;2.00;;;;;20.31;58.92;102045.06;4998017;28;45352;-91
2021/07/16 09:20:46;;;;;;;;;3.00;1.33;;;;;20.43;58.72;102031.97;4999038;28;45284;-92
2021/07/16 09:23:15;;;;;;;;;3.33;1.67;;;;;20.51;59.29;102034.19;5008663;28;45579;-91
2021/07/16 09:25:41;;;;;;;;;2.00;1.00;;;;;20.67;58.21;102030.66;4995825;28;44790;-92
2021/07/16 09:28:07;;;;;;;;;1.33;1.33;;;;;20.76;58.28;102038.06;4995955;28;45483;-92
2021/07/16 09:30:33;;;;;;;;;1.00;1.00;;;;;20.86;57.83;102022.50;4998794;28;45530;-91
2021/07/16 09:33:05;;;;;;;;;2.00;2.00;;;;;21.04;58.21;102030.28;4998455;28;48011;-91
2021/07/16 09:35:33;;;;;;;;;3.00;3.00;;;;;21.16;57.70;102026.06;5013939;28;45339;-93
2021/07/16 09:38:03;;;;;;;;;3.00;2.67;;;;;21.31;57.92;102032.19;4985266;28;45439;-92
2021/07/16 09:40:31;;;;;;;;;2.00;2.00;;;;;21.45;56.96;102037.50;4994947;28;45574;-92
2021/07/16 09:43:09;;;;;;;;;4.00;4.00;;;;;21.57;56.42;102032.41;5008006;28;47188;-92
2021/07/16 09:45:36;;;;;;;;;5.67;4.00;;;;;21.65;56.69;102040.69;4979419;28;45516;-92
2021/07/16 09:48:29;;;;;;;;;2.00;2.00;;;;;21.77;56.59;102039.13;5000235;28;45399;-91
2021/07/16 09:51:13;;;;;;;;;6.00;2.67;;;;;21.84;55.73;102047.53;4999616;28;45277;-93
2021/07/16 09:53:53;;;;;;;;;5.33;4.00;;;;;21.81;55.07;102045.06;5002643;28;47213;-92
2021/07/16 09:56:27;;;;;;;;;3.33;2.67;;;;;21.77;55.61;102052.38;5000200;28;45437;-93
2021/07/16 09:59:08;;;;;;;;;3.33;3.33;;;;;21.76;55.13;102054.16;5015303;28;45505;-92
2021/07/16 10:01:36;;;;;;;;;3.00;3.00;;;;;21.74;55.26;102049.91;4996872;28;45609;-92
2021/07/16 10:04:04;;;;;;;;;2.33;2.33;;;;;21.70;54.38;102043.09;4998774;28;48249;-94
2021/07/16 10:06:29;;;;;;;;;1.00;1.00;;;;;21.65;53.90;102055.75;4998183;28;45490;-92
2021/07/16 10:08:58;;;;;;;;;1.00;1.00;;;;;21.58;55.01;102044.69;5000164;28;45414;-93
2021/07/16 10:11:27;;;;;;;;;1.33;1.33;;;;;21.59;54.35;102052.53;5000734;28;45180;-92
2021/07/16 10:13:55;;;;;;;;;3.00;1.00;;;;;21.59;53.81;102052.53;4991175;28;51144;-93
2021/07/16 10:16:20;;;;;;;;;1.67;1.67;;;;;21.58;54.53;102050.81;4982986;28;45442;-92
2021/07/16 10:18:47;;;;;;;;;3.67;3.00;;;;;21.55;54.53;102047.50;4998182;28;45485;-92
2021/07/16 10:21:12;;;;;;;;;2.00;2.00;;;;;21.64;54.75;102052.25;4981119;28;45540;-94
2021/07/16 10:23:39;;;;;;;;;5.67;2.33;;;;;21.69;54.37;102063.41;4979433;28;45445;-92
2021/07/16 10:26:09;;;;;;;;;4.00;4.00;;;;;21.75;54.69;102064.84;5010722;28;45405;-93
2021/07/16 10:28:43;;;;;;;;;3.00;2.67;;;;;21.82;54.73;102065.31;4994366;28;45567;-92
2021/07/16 10:31:37;;;;;;;;;3.33;3.33;;;;;21.89;54.39;102062.19;4993296;28;45473;-93
2021/07/16 10:34:11;;;;;;;;;4.00;4.00;;;;;21.94;54.41;102063.69;4996266;28;48306;-93
2021/07/16 10:36:49;;;;;;;;;3.33;3.33;;;;;21.99;54.04;102078.34;4997377;28;45763;-93
2021/07/16 10:39:40;;;;;;;;;3.67;3.67;;;;;21.98;53.78;102076.66;4998229;28;45438;-93
2021/07/16 10:42:27;;;;;;;;;5.25;4.50;;;;;21.93;53.24;102080.56;5019853;28;45240;-93
2021/07/16 10:44:54;;;;;;;;;4.00;4.00;;;;;21.84;53.59;102079.34;5014086;28;47395;-94
2021/07/16 10:47:39;;;;;;;;;8.75;7.00;;;;;21.78;53.48;102080.56;4998063;28;46782;-94
2021/07/16 10:50:08;;;;;;;;;5.00;5.00;;;;;21.74;53.79;102077.25;5015483;28;45595;-93
2021/07/16 10:52:45;;;;;;;;;5.50;5.00;;;;;21.72;53.29;102088.88;4992145;28;45415;-95
2021/07/16 10:55:13;;;;;;;;;5.33;5.33;;;;;21.71;53.14;102081.91;4994667;28;47360;-92
2021/07/16 10:57:40;;;;;;;;;5.33;5.33;;;;;21.65;52.68;102083.09;4996758;28;45632;-93
2021/07/16 11:00:08;;;;;;;;;6.67;5.33;;;;;21.66;53.25;102091.88;4993335;28;45502;-92
2021/07/16 11:02:45;;;;;;;;;5.33;5.33;;;;;21.62;53.25;102096.53;4992106;28;45453;-93
2021/07/16 11:05:32;;;;;;;;;5.67;5.33;;;;;21.62;53.24;102101.81;4980633;28;47958;-92
2021/07/16 11:07:58;;;;;;;;;8.33;7.33;;;;;21.61;53.34;102097.44;4996159;28;45528;-92
2021/07/16 11:10:43;;;;;;;;;6.33;5.00;;;;;21.63;52.90;102100.88;4996618;28;45367;-92
2021/07/16 11:13:34;;;;;;;;;8.33;7.33;;;;;21.67;52.66;102097.09;4998048;28;45590;-92
2021/07/16 11:16:00;;;;;;;;;5.25;5.25;;;;;21.67;52.53;102091.81;5012751;28;47382;-94
2021/07/16 11:18:28;;;;;;;;;7.00;7.00;;;;;21.78;53.27;102099.09;4995995;28;45636;-93
2021/07/16 11:20:55;;;;;;;;;8.67;8.00;;;;;21.88;52.73;102102.03;4983758;28;45541;-92
2021/07/16 11:23:41;;;;;;;;;5.00;4.50;;;;;21.95;52.36;102097.19;4976625;28;45470;-92
2021/07/16 11:26:17;;;;;;;;;10.50;7.50;;;;;22.10;52.49;102100.66;4996931;23;46263;-93